map of KCDI home
KCDI - Airport
Location
City:  Cambridge, Ohio, United States
Name:Cambridge Municipal Airport
ICAO:KCDI
FAA LID:CDI

Details
Type:Airport (Airfield)
Use:Public/Civil
Latitude:3958'30"N (39.975028)
Longitude:8134'39"W (-81.577582)
Datum:WGS 1984
Elevation:798 ft (243 m)
Variation:8.15W (WMM2015 magnetic declination)
-0.03 annual change
Runways:1
Longest:4298 × 75 ft (1310 × 23 m), paved

Time
Time Zone:UTC-5 (DST-4)
Local Time:

Weather
METAR:KCDI 141035Z AUTO 34003KT 10SM CLR M03/M08 A3049 RMK AO2 T10301078

Related Locations
Nearby:
Farthest:YAUG: 11441 mi / 18412 km
Augusta [Augusta Airport], WA, AU

Find:

   beyond  
but within

Other Information
Maps:
NOTAMs:
Links:
Sources:

  
  • flag of United States
  • flag of Ohio
  

Sectional Chart

Flight Planning
at skyvector.com

Satellite Image

Google Maps Satellite view

 

Copyright © 2004-2018 Karl L. Swartz. All rights reserved.
The Great Circle Mapper name and logo are trademarks of the Great Circle Mapper.
All other trademarks mentioned herein belong to their respective owners.
Please see credits for attibutions and further copyright information.

  Follow gcmap on Facebook Follow gcmap on Twitter Follow gcmap on Google+ GCmap on LinkedIn

hCard Microformat

Geo Microformat